createdAt,value
2023-03-17T00:00:10.380Z,26.5
2023-03-17T00:05:48.189Z,26.5
2023-03-17T00:11:40.785Z,26.5
2023-03-17T00:17:18.117Z,26.4
2023-03-17T00:23:10.100Z,26.4
2023-03-17T00:29:03.589Z,26.4
2023-03-17T00:40:01.757Z,26.4
2023-03-17T00:45:39.006Z,26.4
2023-03-17T00:51:31.538Z,26.4
2023-03-17T00:57:24.258Z,26.4
2023-03-17T01:03:02.691Z,26.4
2023-03-17T01:09:03.842Z,26.4
2023-03-17T01:14:40.764Z,26.4
2023-03-17T01:20:18.020Z,26.4
2023-03-17T01:26:10.319Z,26.4
2023-03-17T01:32:03.116Z,26.3
2023-03-17T01:37:41.006Z,26.3
2023-03-17T01:43:03.254Z,26.3
2023-03-17T01:48:56.744Z,26.3
2023-03-17T01:54:49.417Z,26.3
2023-03-17T02:00:10.469Z,26.3
2023-03-17T02:05:32.193Z,26.3
2023-03-17T02:11:38.752Z,26.3
2023-03-17T02:17:30.875Z,26.3
2023-03-17T02:34:23.015Z,26.3
2023-03-17T02:40:01.281Z,26.2
2023-03-17T02:45:38.362Z,26.2
2023-03-17T02:50:58.936Z,26.2
2023-03-17T02:56:51.804Z,26.2
2023-03-17T03:02:29.770Z,26.2
2023-03-17T03:08:22.214Z,26.1
2023-03-17T03:14:15.311Z,26.1
2023-03-17T03:20:09.099Z,26.1
2023-03-17T03:26:00.621Z,26.1
2023-03-17T03:31:53.459Z,26.1
2023-03-17T03:37:31.253Z,26.1
2023-03-17T03:42:53.204Z,26.1
2023-03-17T03:54:35.721Z,26.1
2023-03-17T04:00:12.977Z,26.1
2023-03-17T04:05:52.066Z,26
2023-03-17T04:11:43.597Z,26
2023-03-17T04:17:36.479Z,26
2023-03-17T04:23:29.180Z,26
2023-03-17T04:29:24.137Z,26
2023-03-17T04:35:02.806Z,25.9
2023-03-17T04:40:58.433Z,25.9
2023-03-17T04:52:32.885Z,25.9
2023-03-17T04:58:18.165Z,25.9
2023-03-17T05:04:45.320Z,25.9
2023-03-17T05:10:24.308Z,25.9
2023-03-17T05:16:16.198Z,25.9
2023-03-17T05:22:09.112Z,25.9
2023-03-17T05:28:01.207Z,25.9
2023-03-17T05:33:55.077Z,25.8
2023-03-17T05:39:47.863Z,25.8
2023-03-17T05:45:42.292Z,25.8
2023-03-17T05:51:37.008Z,25.8
2023-03-17T05:57:14.791Z,25.8
2023-03-17T06:03:07.329Z,25.8
2023-03-17T06:09:15.114Z,25.8
2023-03-17T06:14:52.156Z,25.8
2023-03-17T06:20:44.623Z,25.8
2023-03-17T06:26:46.703Z,25.8
2023-03-17T06:32:53.185Z,25.7
2023-03-17T06:38:46.663Z,25.7
2023-03-17T06:44:40.674Z,25.7
2023-03-17T06:50:33.840Z,25.7
2023-03-17T06:56:43.735Z,25.6
2023-03-17T07:02:37.922Z,25.7
2023-03-17T07:08:30.592Z,25.6
2023-03-17T07:14:22.594Z,25.6
2023-03-17T07:20:16.487Z,25.6
2023-03-17T07:26:08.607Z,25.6
2023-03-17T07:31:46.049Z,25.6
2023-03-17T07:37:24.576Z,25.6
2023-03-17T07:43:01.542Z,25.6
2023-03-17T07:48:56.814Z,25.6
2023-03-17T07:55:04.503Z,25.5
2023-03-17T08:00:56.932Z,25.5
2023-03-17T08:07:06.554Z,25.5
2023-03-17T08:12:59.372Z,25.5
2023-03-17T08:18:52.422Z,25.4
2023-03-17T08:24:47.068Z,25.4
2023-03-17T08:30:42.824Z,25.4
2023-03-17T08:36:37.747Z,25.4
2023-03-17T08:42:16.657Z,25.4
2023-03-17T08:47:54.125Z,25.4
2023-03-17T08:59:24.619Z,25.4
2023-03-17T09:05:19.034Z,25.4
2023-03-17T09:11:33.488Z,25.3
2023-03-17T09:17:38.424Z,25.3
2023-03-17T09:23:16.696Z,25.3
2023-03-17T09:29:10.362Z,25.3
2023-03-17T09:35:07.841Z,25.3
2023-03-17T09:40:30.352Z,25.3
2023-03-17T09:46:23.965Z,25.3
2023-03-17T09:52:17.411Z,25.3
2023-03-17T09:58:11.417Z,25.3
2023-03-17T10:04:03.862Z,25.3
2023-03-17T10:10:09.718Z,25.2
2023-03-17T10:16:03.539Z,25.2
2023-03-17T10:21:57.260Z,25.2
2023-03-17T10:27:21.756Z,25.1
2023-03-17T10:33:15.845Z,25.1
2023-03-17T10:39:20.022Z,25.1
2023-03-17T10:45:12.571Z,25.1
2023-03-17T10:51:06.327Z,25.1
2023-03-17T10:56:59.230Z,25.1
2023-03-17T11:02:52.789Z,25.1
2023-03-17T11:08:47.057Z,25.1
2023-03-17T11:14:39.210Z,25.1
2023-03-17T11:20:31.184Z,25
2023-03-17T11:26:09.620Z,25
2023-03-17T11:31:47.488Z,25
2023-03-17T11:37:40.044Z,24.9
2023-03-17T11:43:33.230Z,24.9
2023-03-17T11:49:25.939Z,24.9
2023-03-17T11:55:18.805Z,24.9
2023-03-17T12:01:11.719Z,24.9
2023-03-17T12:07:05.422Z,24.9
2023-03-17T12:12:57.096Z,24.9
2023-03-17T12:18:52.624Z,24.9
2023-03-17T12:24:45.872Z,24.9
2023-03-17T12:30:23.034Z,24.8
2023-03-17T12:36:19.734Z,24.8
2023-03-17T12:42:13.115Z,24.8
2023-03-17T12:48:07.251Z,24.8
2023-03-17T12:54:00.334Z,24.8
2023-03-17T12:59:53.062Z,24.8
2023-03-17T13:05:50.332Z,24.8
2023-03-17T13:11:44.236Z,24.8
2023-03-17T13:17:22.117Z,24.8
2023-03-17T13:23:16.347Z,24.8
2023-03-17T13:29:14.608Z,24.7
2023-03-17T13:35:07.989Z,24.7
2023-03-17T13:41:17.046Z,24.7
2023-03-17T13:47:25.194Z,24.7
2023-03-17T13:53:23.684Z,24.6
2023-03-17T13:59:17.503Z,24.6
2023-03-17T14:05:11.611Z,24.6
2023-03-17T14:11:04.858Z,24.6
2023-03-17T14:17:07.108Z,24.6
2023-03-17T14:22:49.012Z,24.6
2023-03-17T14:28:44.419Z,24.6
2023-03-17T14:34:38.028Z,24.6
2023-03-17T14:40:15.883Z,24.5
2023-03-17T14:46:08.923Z,24.6
2023-03-17T14:52:01.395Z,24.5
2023-03-17T14:57:54.908Z,24.5
2023-03-17T15:03:49.455Z,24.5
2023-03-17T15:09:44.938Z,24.5
2023-03-17T15:15:38.220Z,24.4
2023-03-17T15:21:31.215Z,24.4
2023-03-17T15:27:24.795Z,24.4
2023-03-17T15:33:25.306Z,24.4
2023-03-17T15:39:24.777Z,24.4
2023-03-17T15:45:17.795Z,24.4
2023-03-17T15:51:10.806Z,24.4
2023-03-17T15:57:04.807Z,24.3
2023-03-17T16:02:58.658Z,24.3
2023-03-17T16:08:51.356Z,24.3
2023-03-17T16:14:47.138Z,24.3
2023-03-17T16:20:53.028Z,24.3
2023-03-17T16:26:57.143Z,24.3
2023-03-17T16:32:33.820Z,24.3
2023-03-17T16:38:26.003Z,24.3
2023-03-17T16:44:30.595Z,24.2
2023-03-17T16:50:23.973Z,24.2
2023-03-17T16:56:00.792Z,24.2
2023-03-17T17:01:55.465Z,24.1
2023-03-17T17:07:17.510Z,24.2
2023-03-17T17:12:54.350Z,24.1
2023-03-17T17:18:31.560Z,24.1
2023-03-17T17:24:09.740Z,24.1
2023-03-17T17:29:32.452Z,24.1
2023-03-17T17:35:10.399Z,24.1
2023-03-17T17:41:03.521Z,24.1
2023-03-17T17:46:56.914Z,24.1
2023-03-17T17:52:36.433Z,24.1
2023-03-17T17:58:28.765Z,24.1
2023-03-17T18:04:05.687Z,24
2023-03-17T18:09:27.774Z,24
2023-03-17T18:15:05.605Z,24
2023-03-17T18:20:41.912Z,24
2023-03-17T18:26:35.221Z,23.9
2023-03-17T18:32:29.241Z,23.9
2023-03-17T18:37:51.366Z,23.9
2023-03-17T18:43:58.185Z,23.9
2023-03-17T18:49:20.081Z,23.9
2023-03-17T18:54:57.007Z,23.9
2023-03-17T19:00:51.514Z,23.9
2023-03-17T19:12:06.414Z,23.9
2023-03-17T19:17:59.137Z,23.9
2023-03-17T19:23:50.350Z,23.8
2023-03-17T19:29:27.557Z,23.8
2023-03-17T19:35:06.209Z,23.8
2023-03-17T19:40:45.015Z,23.8
2023-03-17T19:46:17.159Z,23.8
2023-03-17T19:57:01.514Z,23.8
2023-03-17T20:02:54.298Z,23.8
2023-03-17T20:08:48.040Z,23.6
2023-03-17T20:14:40.889Z,23.6
2023-03-17T20:20:04.926Z,23.6
2023-03-17T20:25:11.331Z,23.5
2023-03-17T20:30:49.420Z,23.5
2023-03-17T20:36:29.328Z,23.4
2023-03-17T20:42:22.341Z,23.4
2023-03-17T20:48:14.574Z,23.4
2023-03-17T20:54:10.198Z,23.3
2023-03-17T21:00:03.312Z,23.3
2023-03-17T21:05:56.699Z,23.3
2023-03-17T21:11:49.212Z,23.3
2023-03-17T21:17:27.862Z,23.3
2023-03-17T21:23:23.575Z,23.3
2023-03-17T21:29:01.214Z,23.2
2023-03-17T21:34:22.632Z,23.2
2023-03-17T21:40:18.908Z,23.2
2023-03-17T21:46:11.444Z,23.1
2023-03-17T21:52:04.755Z,23.1
2023-03-17T21:57:58.529Z,23.1
2023-03-17T22:09:06.532Z,23.1
2023-03-17T22:14:29.138Z,23.1
2023-03-17T22:20:10.158Z,23.1
2023-03-17T22:25:47.682Z,23.1
2023-03-17T22:31:41.002Z,23.1
2023-03-17T22:37:34.849Z,23.1
2023-03-17T22:43:13.940Z,23.1
2023-03-17T22:49:09.395Z,23.1
2023-03-17T22:54:31.709Z,23
2023-03-17T23:00:23.942Z,23
2023-03-17T23:06:16.306Z,23
2023-03-17T23:12:04.136Z,23
2023-03-17T23:17:56.750Z,23
2023-03-17T23:23:49.811Z,23
2023-03-17T23:29:42.920Z,22.9
2023-03-17T23:35:21.190Z,23
2023-03-17T23:40:59.220Z,22.9
2023-03-17T23:46:52.450Z,22.9
2023-03-17T23:52:30.336Z,22.9
2023-03-17T23:58:07.082Z,22.9
